Time;durP1;ratioP1;P1;durP2;ratioP2;P2;SDS_P1;SDS_P2;PMS_P1;PMS_P2;Temp;Humidity;BMP_temperature;BMP_pressure;BME280_temperature;BME280_humidity;BME280_pressure;Samples;Min_cycle;Max_cycle;Signal;HPM_P1;HPM_P2
2023/08/30 00:01:17;;;;;;;5.70;3.90;;;;;;;16.31;100.00;100051.30;104983;1265;61186;-62
2023/08/30 00:03:44;;;;;;;7.70;4.20;;;;;;;16.29;100.00;100055.23;104584;1265;60993;-63
2023/08/30 00:06:11;;;;;;;9.50;4.50;;;;;;;16.27;100.00;100058.33;104951;1265;74861;-61
2023/08/30 00:08:38;;;;;;;8.40;3.80;;;;;;;16.24;100.00;100061.45;105148;1271;66041;-61
2023/08/30 00:11:05;;;;;;;8.30;4.50;;;;;;;16.21;100.00;100057.13;104573;1270;72622;-63
2023/08/30 00:13:33;;;;;;;9.40;3.50;;;;;;;16.19;100.00;100063.42;104944;1265;61181;-63
2023/08/30 00:16:01;;;;;;;6.50;3.40;;;;;;;16.17;100.00;100063.26;104752;1269;61242;-61
2023/08/30 00:18:28;;;;;;;7.00;4.20;;;;;;;16.13;100.00;100065.26;105170;1265;73044;-61
2023/08/30 00:20:56;;;;;;;9.70;4.20;;;;;;;16.07;100.00;100064.29;104762;1269;66153;-64
2023/08/30 00:23:23;;;;;;;7.30;4.50;;;;;;;16.01;100.00;100064.27;104461;1267;71548;-61
2023/08/30 00:25:51;;;;;;;8.10;4.10;;;;;;;15.97;100.00;100068.95;104949;1265;61125;-63
2023/08/30 00:28:18;;;;;;;7.20;3.90;;;;;;;15.94;100.00;100073.67;104502;1269;61396;-61
2023/08/30 00:30:45;;;;;;;9.70;4.70;;;;;;;15.93;100.00;100078.73;104768;1265;74168;-61
2023/08/30 00:33:12;;;;;;;7.50;4.70;;;;;;;15.92;100.00;100075.61;104633;1270;65833;-62
2023/08/30 00:35:39;;;;;;;7.20;4.40;;;;;;;15.91;100.00;100081.40;104904;1271;71383;-61
2023/08/30 00:38:06;;;;;;;7.70;4.90;;;;;;;15.88;100.00;100086.21;105381;1269;61146;-62
2023/08/30 00:40:39;;;;;;;8.30;4.00;;;;;;;15.84;100.00;100083.76;104986;1265;61255;-60
2023/08/30 00:43:07;;;;;;;8.90;4.70;;;;;;;15.80;100.00;100081.91;104729;1272;74746;-61
2023/08/30 00:45:34;;;;;;;8.70;5.00;;;;;;;15.75;100.00;100079.90;105013;1265;66174;-61
2023/08/30 00:48:02;;;;;;;8.70;4.70;;;;;;;15.72;100.00;100078.20;104898;1265;72515;-62
2023/08/30 00:50:29;;;;;;;8.30;5.10;;;;;;;15.69;100.00;100074.41;104812;1271;61300;-60
2023/08/30 00:52:56;;;;;;;6.40;4.70;;;;;;;15.67;100.00;100072.98;104975;1267;61191;-64
2023/08/30 00:55:23;;;;;;;8.10;4.40;;;;;;;15.64;100.00;100077.17;104827;1267;74810;-61
2023/08/30 00:57:50;;;;;;;9.50;5.30;;;;;;;15.61;100.00;100070.95;104960;1268;67204;-63
2023/08/30 01:00:17;;;;;;;8.10;5.20;;;;;;;15.58;100.00;100072.13;105237;1265;72731;-61
2023/08/30 01:02:44;;;;;;;9.00;5.00;;;;;;;15.55;100.00;100076.77;104626;1265;61189;-60
2023/08/30 01:05:12;;;;;;;8.10;4.50;;;;;;;15.50;100.00;100076.98;104836;1270;61262;-61
2023/08/30 01:07:39;;;;;;;9.90;4.90;;;;;;;15.45;100.00;100079.59;104741;1265;74758;-60
2023/08/30 01:10:06;;;;;;;10.60;5.20;;;;;;;15.41;100.00;100082.20;104578;1266;67253;-63
2023/08/30 01:12:40;;;;;;;11.40;5.70;;;;;;;15.38;100.00;100087.73;104895;1265;72642;-61
2023/08/30 01:15:18;;;;;;;9.50;5.30;;;;;;;15.36;100.00;100085.67;104727;1274;61253;-63
2023/08/30 01:17:51;;;;;;;9.40;5.50;;;;;;;15.33;100.00;100086.48;105083;1271;61210;-62
2023/08/30 01:20:20;;;;;;;9.90;5.30;;;;;;;15.30;100.00;100086.89;104685;1269;74708;-61
2023/08/30 01:23:09;;;;;;;9.70;5.60;;;;;;;15.28;100.00;100083.04;104813;1270;65893;-63
2023/08/30 01:25:45;;;;;;;8.30;6.00;;;;;;;15.26;100.00;100087.44;104745;1273;73201;-62
2023/08/30 01:28:12;;;;;;;7.70;4.80;;;;;;;15.24;100.00;100089.59;104737;1268;61436;-62
2023/08/30 01:30:41;;;;;;;10.00;5.90;;;;;;;15.22;100.00;100095.95;104868;1267;61355;-63
2023/08/30 01:33:08;;;;;;;18.60;5.80;;;;;;;15.19;100.00;100097.09;104812;1270;74456;-61
2023/08/30 01:35:37;;;;;;;12.10;5.40;;;;;;;15.18;100.00;100094.77;104904;1269;67275;-62
2023/08/30 01:38:04;;;;;;;11.30;5.00;;;;;;;15.18;100.00;100095.90;104798;1270;72750;-61
2023/08/30 01:40:39;;;;;;;11.60;4.70;;;;;;;15.17;100.00;100096.04;104949;1266;61357;-64
2023/08/30 01:43:06;;;;;;;8.70;4.90;;;;;;;15.17;100.00;100095.67;104921;1269;61268;-61
2023/08/30 01:45:38;;;;;;;9.10;4.50;;;;;;;15.15;100.00;100092.56;104725;1273;74715;-61
2023/08/30 01:48:08;;;;;;;13.50;5.20;;;;;;;15.13;100.00;100092.15;104696;1271;67333;-62
2023/08/30 01:50:36;;;;;;;9.30;4.60;;;;;;;15.11;100.00;100089.66;104858;1270;71465;-61
2023/08/30 01:53:03;;;;;;;8.40;5.00;;;;;;;15.08;100.00;100091.80;105195;1269;61270;-61
2023/08/30 01:55:30;;;;;;;10.20;4.80;;;;;;;15.05;100.00;100095.86;104710;1268;61627;-61
2023/08/30 01:57:58;;;;;;;8.30;4.30;;;;;;;15.00;100.00;100099.16;104840;1265;75491;-61
2023/08/30 02:00:26;;;;;;;13.20;5.00;;;;;;;14.98;100.00;100103.88;105006;1265;67186;-63
2023/08/30 02:02:53;;;;;;;8.10;4.60;;;;;;;14.97;100.00;100106.20;104882;1269;72508;-64
2023/08/30 02:05:20;;;;;;;9.00;5.00;;;;;;;14.95;100.00;100106.56;104778;1270;61375;-61
2023/08/30 02:07:51;;;;;;;9.10;5.30;;;;;;;14.93;100.00;100103.84;104798;1269;61176;-58
2023/08/30 02:10:23;;;;;;;9.30;4.90;;;;;;;14.92;100.00;100103.04;105001;1267;74792;-62
2023/08/30 02:12:53;;;;;;;8.00;4.80;;;;;;;14.90;100.00;100107.38;104922;1268;66146;-60
2023/08/30 02:15:21;;;;;;;10.10;4.50;;;;;;;14.86;100.00;100109.23;104802;1265;73201;-60
2023/08/30 02:17:48;;;;;;;10.40;4.70;;;;;;;14.81;100.00;100110.19;104804;1270;61365;-59
2023/08/30 02:20:16;;;;;;;10.20;5.50;;;;;;;14.77;100.00;100108.88;104992;1271;61190;-62
2023/08/30 02:22:43;;;;;;;11.20;4.50;;;;;;;14.72;100.00;100115.88;104851;1268;73410;-59
2023/08/30 02:25:10;;;;;;;7.40;4.30;;;;;;;14.67;100.00;100121.27;105185;1271;65878;-61
2023/08/30 02:27:37;;;;;;;12.10;5.00;;;;;;;14.63;100.00;100125.63;104637;1269;72737;-59
2023/08/30 02:30:06;;;;;;;7.20;4.30;;;;;;;14.56;100.00;100129.63;104759;1266;63359;-59
2023/08/30 02:32:33;;;;;;;9.40;4.60;;;;;;;14.51;100.00;100129.46;104917;1269;61274;-59
2023/08/30 02:35:01;;;;;;;8.80;4.80;;;;;;;14.47;100.00;100135.41;104844;1266;73549;-60
2023/08/30 02:37:28;;;;;;;8.70;5.00;;;;;;;14.44;100.00;100140.41;104837;1265;67482;-61
2023/08/30 02:39:55;;;;;;;7.30;4.70;;;;;;;14.42;100.00;100139.29;104865;1269;71537;-62
2023/08/30 02:42:22;;;;;;;9.50;4.70;;;;;;;14.41;100.00;100135.10;104788;1269;61359;-61
2023/08/30 02:44:49;;;;;;;11.60;5.40;;;;;;;14.39;100.00;100137.98;104888;1269;61156;-61
2023/08/30 02:47:16;;;;;;;8.50;4.50;;;;;;;14.39;100.00;100137.59;104818;1269;73545;-61
2023/08/30 02:49:43;;;;;;;9.20;4.70;;;;;;;14.39;100.00;100139.70;104950;1265;67124;-61
2023/08/30 02:52:10;;;;;;;6.90;4.30;;;;;;;14.40;100.00;100146.41;104872;1270;72693;-61
2023/08/30 02:54:37;;;;;;;8.10;4.10;;;;;;;14.41;100.00;100147.90;104795;1266;61290;-61
2023/08/30 02:57:04;;;;;;;9.00;4.80;;;;;;;14.43;100.00;100148.84;104982;1268;61339;-61
2023/08/30 02:59:32;;;;;;;11.20;4.90;;;;;;;14.46;100.00;100153.34;104790;1265;75025;-60
2023/08/30 03:02:03;;;;;;;10.60;5.40;;;;;;;14.51;100.00;100159.52;104686;1271;66610;-61
2023/08/30 03:04:30;;;;;;;9.10;4.30;;;;;;;14.58;100.00;100162.98;105006;1269;72514;-60
2023/08/30 03:06:57;;;;;;;9.70;4.60;;;;;;;14.67;100.00;100163.17;104863;1270;61105;-60
2023/08/30 03:09:24;;;;;;;8.30;4.80;;;;;;;14.76;100.00;100168.36;104757;1265;61351;-61
2023/08/30 03:11:51;;;;;;;9.30;4.20;;;;;;;14.87;100.00;100172.44;104879;1266;75072;-62
2023/08/30 03:14:18;;;;;;;9.20;4.60;;;;;;;14.98;100.00;100179.63;104910;1270;65674;-61
2023/08/30 03:16:47;;;;;;;9.00;5.20;;;;;;;15.10;100.00;100180.02;105345;1269;72677;-60
2023/08/30 03:19:16;;;;;;;9.40;5.40;;;;;;;15.23;100.00;100175.96;104920;1271;61360;-60
2023/08/30 03:21:44;;;;;;;10.50;5.80;;;;;;;15.38;100.00;100175.10;104532;1269;61265;-62
2023/08/30 03:24:11;;;;;;;10.90;6.40;;;;;;;15.52;100.00;100174.69;104952;1269;74710;-60
2023/08/30 03:26:38;;;;;;;9.10;5.70;;;;;;;15.67;100.00;100175.30;104829;1269;66518;-60
2023/08/30 03:29:05;;;;;;;8.70;5.20;;;;;;;15.88;100.00;100182.41;104914;1270;72697;-60
2023/08/30 03:31:32;;;;;;;8.60;5.20;;;;;;;16.28;100.00;100183.90;104924;1270;61465;-63
2023/08/30 03:33:59;;;;;;;10.80;4.60;;;;;;;16.90;100.00;100184.20;105014;1267;61354;-61
2023/08/30 03:36:27;;;;;;;10.20;5.20;;;;;;;17.67;100.00;100183.77;104809;1265;72162;-61
2023/08/30 03:38:54;;;;;;;7.20;4.60;;;;;;;18.49;100.00;100172.56;104808;1270;67179;-61
2023/08/30 03:41:21;;;;;;;9.90;4.20;;;;;;;19.26;100.00;100166.64;104885;1278;72863;-61
2023/08/30 03:43:48;;;;;;;9.90;4.70;;;;;;;19.88;100.00;100169.08;105218;1270;61157;-63
2023/08/30 03:46:15;;;;;;;10.10;4.60;;;;;;;20.40;100.00;100170.02;104632;1273;61290;-62
2023/08/30 03:48:42;;;;;;;9.60;5.00;;;;;;;20.90;100.00;100173.99;104893;1265;74843;-60
2023/08/30 03:51:11;;;;;;;9.10;5.40;;;;;;;21.39;100.00;100175.55;104947;1267;65960;-60
2023/08/30 03:53:38;;;;;;;10.40;5.60;;;;;;;21.94;100.00;100173.98;104960;1269;73396;-61
2023/08/30 03:56:05;;;;;;;7.50;5.00;;;;;;;22.42;100.00;100173.06;105091;1270;61288;-63
2023/08/30 03:58:33;;;;;;;8.40;4.90;;;;;;;22.75;100.00;100170.12;104807;1265;61248;-60
2023/08/30 04:01:00;;;;;;;11.60;5.70;;;;;;;22.83;100.00;100173.05;104869;1269;74800;-61
2023/08/30 04:03:27;;;;;;;10.10;5.80;;;;;;;22.65;100.00;100176.27;104914;1269;65781;-60
2023/08/30 04:05:56;;;;;;;7.80;5.30;;;;;;;22.60;100.00;100183.72;105110;1265;70812;-63
2023/08/30 04:08:23;;;;;;;7.40;5.30;;;;;;;22.81;100.00;100189.47;104896;1268;61310;-60
2023/08/30 04:10:52;;;;;;;9.90;5.30;;;;;;;23.09;100.00;100185.39;104940;1265;61365;-61
2023/08/30 04:13:19;;;;;;;10.60;4.90;;;;;;;23.37;99.66;100180.98;104926;1269;74479;-60
2023/08/30 04:15:46;;;;;;;9.40;5.60;;;;;;;23.59;96.53;100186.30;105070;1270;65843;-62
2023/08/30 04:18:13;;;;;;;7.90;5.10;;;;;;;23.87;93.90;100185.43;104729;1271;72819;-61
2023/08/30 04:20:49;;;;;;;10.20;5.80;;;;;;;24.24;89.67;100183.31;105210;1269;61267;-60
2023/08/30 04:23:16;;;;;;;9.10;5.30;;;;;;;24.69;86.37;100180.92;104897;1269;60005;-60
2023/08/30 04:25:44;;;;;;;7.30;4.90;;;;;;;25.14;79.41;100175.75;105032;1265;73539;-62
2023/08/30 04:28:11;;;;;;;7.70;5.00;;;;;;;25.47;75.30;100174.89;104647;1265;67227;-61
2023/08/30 04:30:38;;;;;;;8.80;5.10;;;;;;;25.88;70.50;100180.36;104820;1271;72782;-61
2023/08/30 04:33:06;;;;;;;7.20;5.30;;;;;;;26.22;64.05;100184.83;104892;1278;61300;-61
2023/08/30 04:35:33;;;;;;;6.90;5.50;;;;;;;26.50;62.57;100185.08;105119;1267;61259;-64
2023/08/30 04:38:01;;;;;;;8.60;5.90;;;;;;;26.91;57.79;100184.75;105072;1270;75133;-61
2023/08/30 04:40:29;;;;;;;8.80;5.90;;;;;;;27.27;54.01;100183.55;104823;1271;65300;-61
2023/08/30 04:42:57;;;;;;;7.60;5.30;;;;;;;27.69;51.78;100186.56;104887;1271;72259;-61
2023/08/30 04:45:25;;;;;;;10.40;6.20;;;;;;;28.14;48.53;100186.57;105257;1265;61293;-65
2023/08/30 04:47:52;;;;;;;10.70;5.70;;;;;;;28.54;45.30;100183.08;104807;1269;62737;-61
2023/08/30 04:50:20;;;;;;;10.00;5.70;;;;;;;28.81;42.48;100178.55;105292;1269;74686;-61
2023/08/30 04:52:47;;;;;;;8.60;5.80;;;;;;;29.08;41.21;100184.38;104809;1267;67411;-61
2023/08/30 04:55:15;;;;;;;7.30;5.50;;;;;;;29.27;40.09;100184.09;105095;1269;71123;-61
2023/08/30 04:57:44;;;;;;;10.00;6.00;;;;;;;29.54;38.55;100190.04;105202;1269;61177;-64
2023/08/30 05:00:15;;;;;;;7.60;5.50;;;;;;;29.72;36.88;100190.98;104762;1271;61163;-61
2023/08/30 05:02:43;;;;;;;9.90;5.30;;;;;;;30.17;37.28;100190.59;104837;1270;74384;-61
2023/08/30 05:05:11;;;;;;;11.20;6.40;;;;;;;30.61;35.89;100193.58;104987;1270;67379;-61
2023/08/30 05:07:38;;;;;;;9.40;5.40;;;;;;;31.07;34.78;100190.04;105038;1270;72815;-65
2023/08/30 05:10:06;;;;;;;13.30;5.40;;;;;;;31.49;34.58;100191.69;104949;1270;61351;-62
2023/08/30 05:12:34;;;;;;;9.10;4.50;;;;;;;31.96;32.97;100186.67;105065;1270;61279;-62
2023/08/30 05:15:01;;;;;;;9.40;5.80;;;;;;;32.37;31.25;100183.17;105112;1269;74817;-61
2023/08/30 05:17:28;;;;;;;8.30;4.70;;;;;;;32.57;30.60;100182.39;104915;1271;65975;-61
2023/08/30 05:19:56;;;;;;;8.50;4.30;;;;;;;32.58;30.14;100182.92;104760;1270;63992;-63
2023/08/30 05:22:24;;;;;;;10.80;4.60;;;;;;;32.55;29.75;100183.89;105003;1278;61294;-62
2023/08/30 05:24:51;;;;;;;10.60;4.40;;;;;;;32.72;29.72;100187.55;105108;1267;61276;-61
2023/08/30 05:27:19;;;;;;;7.70;4.40;;;;;;;32.92;29.00;100192.87;105138;1269;74506;-61
2023/08/30 05:29:47;;;;;;;8.10;4.90;;;;;;;33.09;28.43;100194.63;105206;1270;66007;-64
2023/08/30 05:32:14;;;;;;;8.60;4.90;;;;;;;33.09;27.74;100194.05;104761;1270;73230;-62
2023/08/30 05:35:14;;;;;;;8.00;4.40;;;;;;;32.76;27.61;100193.85;104872;1267;61180;-63
2023/08/30 05:37:59;;;;;;;7.30;4.40;;;;;;;32.50;27.82;100196.04;104873;1270;61279;-61
2023/08/30 05:40:44;;;;;;;7.20;4.60;;;;;;;32.12;27.53;100197.66;105097;1265;74725;-65
2023/08/30 05:43:11;;;;;;;;;;;;;;;31.87;28.31;100200.18;105363;1269;67325;-64
2023/08/30 05:45:38;;;;;;;14.70;5.50;;;;;;;31.64;28.18;100198.12;104822;1270;71479;-62
2023/08/30 05:48:06;;;;;;;8.60;4.50;;;;;;;31.60;28.97;100199.50;104848;1266;61402;-62
2023/08/30 05:50:33;;;;;;;7.20;5.00;;;;;;;31.66;28.46;100198.92;104720;1270;61304;-61
2023/08/30 05:53:01;;;;;;;10.20;5.00;;;;;;;31.83;28.20;100199.19;105194;1271;74765;-64
2023/08/30 05:55:28;;;;;;;7.00;5.00;;;;;;;32.20;28.20;100191.80;104968;1265;67632;-61
2023/08/30 05:57:55;;;;;;;10.80;5.10;;;;;;;32.54;28.00;100193.42;104673;1267;63914;-61
2023/08/30 06:00:23;;;;;;;10.50;5.00;;;;;;;32.58;27.09;100189.14;105029;1277;61362;-61
2023/08/30 06:02:51;;;;;;;9.10;4.30;;;;;;;32.33;27.25;100190.55;105175;1265;61256;-61
2023/08/30 06:05:18;;;;;;;10.20;4.60;;;;;;;31.99;27.29;100190.56;105074;1267;74542;-65
2023/08/30 06:07:45;;;;;;;9.10;4.60;;;;;;;31.88;27.75;100191.77;104981;1269;61325;-62
2023/08/30 06:10:12;;;;;;;9.60;4.70;;;;;;;31.81;27.48;100193.16;104980;1270;72621;-62
2023/08/30 06:12:39;;;;;;;12.30;5.00;;;;;;;31.53;27.48;100192.91;105009;1270;61367;-61
2023/08/30 06:15:07;;;;;;;5.70;3.60;;;;;;;31.36;28.03;100195.31;105129;1269;59587;-62
2023/08/30 06:17:34;;;;;;;7.50;3.80;;;;;;;31.28;27.57;100194.77;104978;1267;73151;-62
2023/08/30 06:20:01;;;;;;;8.20;4.20;;;;;;;31.17;27.84;100195.02;104663;1270;67250;-62
2023/08/30 06:22:28;;;;;;;6.20;3.80;;;;;;;31.50;28.21;100192.32;104843;1269;73173;-61
2023/08/30 06:24:55;;;;;;;7.90;3.30;;;;;;;32.12;27.50;100192.80;104837;1266;61279;-62
2023/08/30 06:27:23;;;;;;;8.40;3.70;;;;;;;32.62;26.57;100191.81;105111;1266;61331;-65
2023/08/30 06:29:50;;;;;;;5.40;3.60;;;;;;;32.90;25.92;100194.09;104953;1269;74230;-61
2023/08/30 06:32:17;;;;;;;6.20;3.30;;;;;;;33.07;25.83;100193.21;105010;1267;61427;-61
2023/08/30 06:34:44;;;;;;;6.10;3.70;;;;;;;33.48;25.17;100197.96;104998;1269;71306;-61
2023/08/30 06:37:11;;;;;;;7.10;3.60;;;;;;;33.86;24.56;100193.70;105098;1270;61244;-64
2023/08/30 06:39:38;;;;;;;6.90;3.90;;;;;;;34.06;24.42;100195.55;105155;1267;61260;-63
2023/08/30 06:42:05;;;;;;;7.10;4.00;;;;;;;34.29;23.88;100194.42;104597;1267;66956;-61
2023/08/30 06:44:33;;;;;;;6.20;3.50;;;;;;;34.60;23.68;100194.89;105273;1268;61456;-61
2023/08/30 06:47:00;;;;;;;6.30;3.20;;;;;;;34.90;23.28;100195.14;104792;1270;63900;-63
2023/08/30 06:49:31;;;;;;;6.50;3.20;;;;;;;35.18;22.89;100193.69;104556;1269;61343;-61
2023/08/30 06:51:58;;;;;;;6.60;3.40;;;;;;;35.32;22.49;100195.10;104566;1267;61279;-62
2023/08/30 06:54:26;;;;;;;6.70;3.50;;;;;;;35.37;22.26;100197.70;105253;1265;64979;-61
2023/08/30 06:57:00;;;;;;;5.90;3.70;;;;;;;35.41;22.55;100194.99;105019;1270;61276;-63
2023/08/30 06:59:27;;;;;;;6.70;3.60;;;;;;;35.59;22.25;100194.18;104645;1270;66043;-61
2023/08/30 07:01:54;;;;;;;6.30;3.80;;;;;;;35.74;22.10;100197.94;104920;1267;61132;-62
2023/08/30 07:04:21;;;;;;;4.90;3.60;;;;;;;35.83;22.34;100197.42;105007;1265;61340;-61
2023/08/30 07:06:48;;;;;;;6.30;3.40;;;;;;;36.10;22.03;100189.94;104906;1267;66197;-61
2023/08/30 07:09:16;;;;;;;6.10;2.90;;;;;;;36.50;21.45;100188.41;104698;1267;66502;-62
2023/08/30 07:11:44;;;;;;;5.80;3.30;;;;;;;36.70;20.72;100189.48;105093;1269;64497;-63
2023/08/30 07:14:12;;;;;;;7.60;2.90;;;;;;;36.63;20.68;100191.22;104635;1269;61271;-61
2023/08/30 07:16:39;;;;;;;4.60;2.70;;;;;;;36.58;20.40;100193.39;104848;1267;61288;-61
2023/08/30 07:19:06;;;;;;;5.50;2.90;;;;;;;36.23;20.12;100190.06;104958;1270;64607;-61
2023/08/30 07:21:37;;;;;;;7.70;2.80;;;;;;;35.98;20.71;100190.08;105006;1267;65804;-62
2023/08/30 07:24:06;;;;;;;5.80;2.80;;;;;;;36.22;20.16;100188.56;105025;1270;71555;-67
2023/08/30 07:26:33;;;;;;;6.10;2.60;;;;;;;36.53;19.67;100185.36;104722;1271;61367;-62
2023/08/30 07:29:00;;;;;;;4.60;2.60;;;;;;;36.78;19.43;100183.80;104962;1267;61258;-64
2023/08/30 07:31:27;;;;;;;5.20;2.90;;;;;;;37.02;18.96;100179.40;104774;1269;66226;-62
2023/08/30 07:33:55;;;;;;;5.00;2.40;;;;;;;37.38;18.70;100180.59;105007;1269;61482;-62
2023/08/30 07:36:22;;;;;;;4.30;3.10;;;;;;;37.64;18.43;100177.16;104754;1269;63791;-62
2023/08/30 07:39:03;;;;;;;7.10;3.20;;;;;;;37.66;18.43;100174.79;104755;1270;61147;-64
2023/08/30 07:41:31;;;;;;;4.90;2.70;;;;;;;37.93;19.03;100174.36;104947;1267;61190;-62
2023/08/30 07:43:59;;;;;;;7.10;3.20;;;;;;;38.20;19.03;100175.31;104827;1267;64876;-64
2023/08/30 07:46:26;;;;;;;4.90;2.60;;;;;;;38.21;18.81;100177.88;104894;1270;61191;-61
2023/08/30 07:48:53;;;;;;;4.70;2.20;;;;;;;38.14;18.43;100179.75;105010;1270;64061;-63
2023/08/30 07:51:19;;;;;;;4.10;2.40;;;;;;;38.20;18.47;100178.90;104797;1267;61274;-62
2023/08/30 07:53:47;;;;;;;4.70;2.50;;;;;;;38.26;18.48;100178.56;104804;1267;61274;-62
2023/08/30 07:56:14;;;;;;;4.50;2.70;;;;;;;38.04;18.53;100178.16;104989;1266;64761;-63
2023/08/30 07:58:42;;;;;;;7.50;2.40;;;;;;;37.63;18.37;100173.50;104560;1270;61320;-63
2023/08/30 08:01:09;;;;;;;4.00;2.70;;;;;;;37.57;18.75;100170.63;105059;1267;62876;-61
2023/08/30 08:03:36;;;;;;;5.80;3.00;;;;;;;37.80;18.45;100169.98;104969;1267;61127;-62
2023/08/30 08:06:07;;;;;;;5.00;2.80;;;;;;;37.70;18.41;100167.06;105068;1267;62015;-64
2023/08/30 08:08:34;;;;;;;7.30;2.80;;;;;;;37.48;18.88;100167.16;105020;1269;65340;-63
2023/08/30 08:11:02;;;;;;;4.10;2.10;;;;;;;37.42;18.66;100166.84;105031;1267;61357;-64
2023/08/30 08:13:29;;;;;;;3.90;2.30;;;;;;;37.60;18.58;100165.69;105292;1270;62743;-61
2023/08/30 08:15:57;;;;;;;4.80;2.50;;;;;;;37.83;18.63;100164.50;104797;1269;61177;-61
2023/08/30 08:18:24;;;;;;;4.30;2.60;;;;;;;37.68;18.64;100163.84;105061;1267;61367;-63
2023/08/30 08:20:51;;;;;;;4.20;2.30;;;;;;;37.53;18.87;100161.09;104574;1270;66107;-63
2023/08/30 08:23:18;;;;;;;4.00;2.30;;;;;;;37.43;18.46;100162.02;104560;1268;60000;-61
2023/08/30 08:25:45;;;;;;;3.80;2.10;;;;;;;37.33;18.74;100155.58;104905;1270;64189;-61
2023/08/30 08:28:12;;;;;;;5.10;2.30;;;;;;;37.52;18.85;100154.07;104893;1268;61422;-62
2023/08/30 08:30:39;;;;;;;4.90;2.60;;;;;;;37.66;18.70;100152.64;105109;1266;61186;-63
2023/08/30 08:33:06;;;;;;;3.70;2.10;;;;;;;37.83;18.63;100149.91;104859;1267;67220;-61
2023/08/30 08:35:33;;;;;;;5.30;2.20;;;;;;;37.94;18.27;100146.41;104892;1267;61386;-61
2023/08/30 08:38:00;;;;;;;6.00;2.50;;;;;;;37.69;18.27;100145.38;104799;1266;64183;-62
2023/08/30 08:40:28;;;;;;;4.90;2.10;;;;;;;37.31;18.81;100146.15;104839;1270;61306;-62
2023/08/30 08:43:10;;;;;;;4.00;2.50;;;;;;;36.91;18.72;100144.67;104814;1265;61328;-62
2023/08/30 08:45:37;;;;;;;5.70;2.80;;;;;;;36.52;18.87;100141.75;104977;1270;66115;-61
2023/08/30 08:48:05;;;;;;;4.30;1.90;;;;;;;35.83;19.29;100140.00;105382;1269;61131;-61
2023/08/30 08:50:33;;;;;;;4.80;2.20;;;;;;;35.25;19.84;100137.79;105508;1270;62868;-61
2023/08/30 08:53:04;;;;;;;4.90;2.30;;;;;;;35.09;20.43;100136.98;104714;1265;60905;-63
2023/08/30 08:55:31;;;;;;;;;;;;;;;34.95;20.64;100129.72;104899;1269;61322;-63
2023/08/30 08:57:59;;;;;;;4.10;2.60;;;;;;;34.73;20.63;100126.39;104934;1267;64933;-62
2023/08/30 09:00:26;;;;;;;5.50;3.10;;;;;;;34.60;20.71;100131.95;105313;1267;61367;-63
2023/08/30 09:02:54;;;;;;;3.40;2.50;;;;;;;34.64;20.78;100131.20;105243;1265;71534;-63
2023/08/30 09:05:21;;;;;;;4.40;2.30;;;;;;;34.61;20.76;100128.86;104841;1271;61302;-60
2023/08/30 09:07:53;;;;;;;4.30;2.90;;;;;;;34.65;20.92;100124.73;104796;1269;61223;-61
2023/08/30 09:10:21;;;;;;;4.30;2.50;;;;;;;34.82;21.00;100117.95;104755;1266;74681;-60
2023/08/30 09:12:48;;;;;;;4.70;2.70;;;;;;;34.73;20.94;100117.33;105198;1266;66205;-62
2023/08/30 09:15:16;;;;;;;4.60;2.40;;;;;;;34.55;20.97;100116.35;104891;1265;64642;-61
2023/08/30 09:17:46;;;;;;;4.10;2.50;;;;;;;34.40;21.46;100111.67;104659;1269;222659;-61
2023/08/30 09:20:14;;;;;;;4.20;2.60;;;;;;;34.17;21.62;100111.30;104866;1267;61311;-61
2023/08/30 09:22:42;;;;;;;4.90;2.50;;;;;;;33.77;22.33;100108.45;104840;1267;66093;-62
2023/08/30 09:25:10;;;;;;;6.30;3.40;;;;;;;33.38;22.34;100115.56;104903;1267;67061;-61
2023/08/30 09:27:41;;;;;;;4.90;2.60;;;;;;;32.93;22.49;100116.84;104776;1267;72791;-63
2023/08/30 09:30:10;;;;;;;6.40;3.80;;;;;;;32.67;23.32;100110.52;104787;1267;61520;-64
2023/08/30 09:32:41;;;;;;;5.50;3.60;;;;;;;32.64;23.46;100106.45;104931;1265;61456;-62
2023/08/30 09:35:09;;;;;;;5.40;3.50;;;;;;;32.61;23.78;100105.90;104777;1266;74320;-61
2023/08/30 09:37:37;;;;;;;7.00;3.30;;;;;;;32.53;24.02;100109.89;104992;1267;67304;-63
2023/08/30 09:40:05;;;;;;;5.80;3.40;;;;;;;32.49;24.14;100110.21;104959;1270;73738;-62
2023/08/30 09:42:33;;;;;;;7.10;4.00;;;;;;;32.49;24.07;100111.51;104807;1270;61208;-62
2023/08/30 09:45:00;;;;;;;5.20;3.60;;;;;;;32.44;24.34;100108.20;104832;1267;61192;-63
2023/08/30 09:47:27;;;;;;;7.10;3.20;;;;;;;32.48;24.05;100108.55;104584;1265;76223;-61
2023/08/30 09:49:55;;;;;;;6.30;3.50;;;;;;;32.53;23.90;100110.02;104863;1269;67166;-61
2023/08/30 09:52:25;;;;;;;4.60;3.20;;;;;;;32.72;23.84;100113.30;104919;1265;72677;-66
2023/08/30 09:54:53;;;;;;;5.80;3.70;;;;;;;32.82;24.10;100104.95;104992;1265;61354;-62
2023/08/30 09:57:21;;;;;;;7.90;3.30;;;;;;;33.14;24.13;100099.45;104659;1272;61320;-62
2023/08/30 09:59:48;;;;;;;6.90;3.80;;;;;;;33.57;23.75;100096.35;104599;1267;74648;-62
2023/08/30 10:02:15;;;;;;;6.20;3.20;;;;;;;33.83;22.98;100096.89;105016;1265;67342;-65
2023/08/30 10:04:42;;;;;;;6.40;3.10;;;;;;;33.80;23.37;100093.23;104755;1266;63503;-62
2023/08/30 10:07:09;;;;;;;4.50;3.10;;;;;;;33.68;22.72;100090.45;105137;1267;61180;-65
2023/08/30 10:09:38;;;;;;;6.00;3.60;;;;;;;33.40;23.45;100087.69;104658;1267;61221;-62
2023/08/30 10:12:06;;;;;;;4.50;3.20;;;;;;;33.21;23.64;100085.48;104905;1267;74821;-62
2023/08/30 10:14:34;;;;;;;7.70;3.60;;;;;;;33.08;23.57;100081.07;104877;1270;66160;-63
2023/08/30 10:17:03;;;;;;;5.40;3.10;;;;;;;33.03;23.98;100083.52;104666;1267;72410;-62
2023/08/30 10:19:30;;;;;;;4.40;2.90;;;;;;;33.01;24.00;100075.58;105155;1270;61259;-63
2023/08/30 10:22:14;;;;;;;7.20;3.60;;;;;;;32.97;24.04;100075.26;104822;1268;61278;-62
2023/08/30 10:24:44;;;;;;;4.50;3.00;;;;;;;32.90;24.62;100077.52;104695;1265;74720;-62
2023/08/30 10:27:32;;;;;;;5.50;3.20;;;;;;;32.81;24.67;100069.39;104663;1269;65352;-62
2023/08/30 10:30:03;;;;;;;5.60;2.90;;;;;;;32.77;24.71;100069.02;104989;1269;72515;-64
2023/08/30 10:32:31;;;;;;;5.30;3.30;;;;;;;32.64;24.49;100063.22;104773;1267;61177;-62
2023/08/30 10:35:00;;;;;;;5.80;3.80;;;;;;;32.60;25.22;100055.73;105089;1266;61307;-64
2023/08/30 10:37:28;;;;;;;5.20;2.80;;;;;;;32.74;25.13;100054.19;104826;1265;74749;-62
2023/08/30 10:39:59;;;;;;;5.80;3.00;;;;;;;32.78;24.73;100045.00;104859;1268;66099;-63
2023/08/30 10:42:26;;;;;;;7.50;3.40;;;;;;;32.64;24.82;100054.42;105137;1267;71355;-60
2023/08/30 10:45:01;;;;;;;5.20;3.10;;;;;;;32.59;25.20;100052.80;104586;1265;61374;-65
2023/08/30 10:47:40;;;;;;;4.20;2.90;;;;;;;32.60;24.92;100050.38;104859;1269;60592;-61
2023/08/30 10:50:11;;;;;;;6.60;3.40;;;;;;;32.63;25.38;100052.39;104742;1270;74523;-62
2023/08/30 10:52:39;;;;;;;4.70;3.20;;;;;;;32.72;25.60;100050.52;104643;1267;66566;-64
2023/08/30 10:55:07;;;;;;;4.60;3.20;;;;;;;32.76;25.57;100047.83;104779;1270;73377;-64
2023/08/30 10:57:35;;;;;;;9.30;2.80;;;;;;;32.78;24.69;100038.06;105072;1265;61180;-66
2023/08/30 11:00:08;;;;;;;6.50;2.80;;;;;;;32.70;24.94;100041.48;105074;1268;61188;-64
2023/08/30 11:02:36;;;;;;;4.20;2.60;;;;;;;32.58;25.25;100042.96;104790;1267;65991;-68
2023/08/30 11:05:06;;;;;;;5.80;2.40;;;;;;;32.47;25.19;100047.60;104876;1265;67728;-68
2023/08/30 11:07:33;;;;;;;4.00;2.50;;;;;;;32.32;25.42;100039.14;104817;1265;71215;-70
2023/08/30 11:10:00;;;;;;;3.50;1.90;;;;;;;32.38;25.66;100044.61;105164;1265;61286;-68
2023/08/30 11:12:29;;;;;;;4.20;2.50;;;;;;;32.40;25.34;100043.20;105028;1268;61281;-65
2023/08/30 11:14:56;;;;;;;3.30;2.20;;;;;;;32.28;25.72;100041.73;105029;1265;74728;-69
2023/08/30 11:17:25;;;;;;;3.50;2.30;;;;;;;32.24;26.20;100031.17;105558;1265;67717;-69
2023/08/30 11:20:16;;;;;;;5.30;2.10;;;;;;;32.33;26.36;100032.03;104845;1270;72118;-66